Ione, CA

5:09 PM PDT on September 02, 2014 (GMT -0700)
Downtown | Change Station
CLOSE
Current Station
Personal Weather Station
Location: Plymouth, CA
Elevation: 1093 ft
Nearby Weather Stations

Elev 1093 ft 38.48 °N, 120.84 °W | Updated 3 minutes ago

Clear
Clear
96.6 °F
Feels Like 96 °F
N
4.0
Wind Variable Wind from SSW
Gusts 8.0 mph

Today
High -- | Low -- °F
--% Chance of Precip.
Yesterday
High -- | Low -- °F
Precip. -- in
6:34 AM 7:31 PM
First Quarter, 56% visible
Pressure 29.69 in
Visibility 10.0 miles
Clouds Clear
Heat Index 96 °F
Dew Point 58 °F
Humidity 28%
Rainfall 0.00 in
Snow Depth Not available.
UV 3 out of 12
Pollen 8.60 out of 12
PM2.5 Moderate
Flu Activity Not available.
METAR KMHR 022345Z 23012KT 10SM SKC 33/12 A2969

More Conditions Fewer Conditions

Pressure 29.69 in
Visibility 10.0 miles
Clouds Clear
Heat Index 96 °F
Dew Point 58 °F
Humidity 28%
Rainfall 0.00 in
Snow Depth Not available.
UV 3 out of 12
Pollen 8.60 out of 12
PM2.5 Moderate
Flu Activity Not available.
METAR KMHR 022345Z 23012KT 10SM SKC 33/12 A2969

More Conditions Fewer Conditions

10-Day Weather Forecast

Almanac

Astronomy

Sep. 02, 2014 Rise Set
Actual Time 6:34 AM PDT 7:31 PM PDT
Civil Twilight 6:07 AM PDT 7:58 PM PDT
Nautical Twilight 5:35 AM PDT 8:30 PM PDT
Astronomical Twilight 5:01 AM PDT 9:03 PM PDT
Moon 2:17 PM PDT (9/2) No Moon Set
Length of Visible Light 13h 51m
Length of Day
12h 57m
Tomorrow will be 2m 23s shorter.
First Quarter, 56% of the Moon is Illuminated
Today
First Quarter
Sep 8
Full
Sep 15
Last Quarter
Sep 24
New
Oct 1
First Quarter

Today's Extremes

State Highs State Lows

Community

WunderPhotos

Upload Photos

1,749,803 photos uploaded!

Nearby

Air Quality

  Air Quality AQ Index Pollutant
Yesterday Moderate
PM2.5
Yesterday Good
OZONE
Current Moderate
PM2.5
Tuesday Good
OZONE
Wednesday Moderate
OZONE
Thursday Good
PM2.5
Friday Good
PM2.5
Saturday Good
PM2.5
Sunday Good
OZONE

Snow Depth

Station Depth Elevation
Leavitt Meadows 1 in 7200 ft
CSS Lab 0 in 6900 ft
Summit Meadow 0 in 9122 ft
Adin Mountain 0 in 6200 ft
Cedar Pass 0 in 7100 ft

Earthquake Activity

City Distance Mag. Time & Date
Cobb, California 104 miles 2.5 12:00 PM PDT
2014-09-02
Yountville, California 79 miles 2.6 1:15 PM PDT
2014-09-01
Gilroy, California 97 miles 3.5 9:10 AM PDT
2014-09-01
Green Valley, California 66 miles 2.5 6:37 AM PDT
2014-08-31
Minimum magnitude displayed is 2.5.

Coastal Water Temperatures

Place Temperature
No Stations Reporting

Nearby Weather Stations